TimeCST,TemperatureF,Dew PointF,Humidity,Sea Level PressureIn,VisibilityMPH,Wind Direction,Wind SpeedMPH,Gust SpeedMPH,PrecipitationIn,Events,Conditions,WindDirDegrees,DateUTC
12:08 AM,16.0,8.1,71,-9999,-9999.0,WSW,11.5,-,N/A,,Unknown,240,2013-12-10 06:08:00
12:28 AM,16.0,8.1,71,-9999,-9999.0,SW,9.2,-,N/A,,Unknown,230,2013-12-10 06:28:00
12:48 AM,16.0,8.1,71,-9999,-9999.0,SW,9.2,-,N/A,,Unknown,230,2013-12-10 06:48:00
1:08 AM,16.0,7.2,68,-9999,-9999.0,WSW,11.5,-,N/A,,Unknown,240,2013-12-10 07:08:00
1:28 AM,18.0,7.2,63,-9999,-9999.0,WSW,10.4,-,N/A,,Unknown,240,2013-12-10 07:28:00
1:48 AM,17.1,6.1,62,-9999,-9999.0,West,11.5,-,N/A,,Unknown,260,2013-12-10 07:48:00
2:08 AM,16.0,6.1,65,-9999,-9999.0,WSW,8.1,-,N/A,,Unknown,250,2013-12-10 08:08:00
2:28 AM,16.0,3.0,57,-9999,-9999.0,SSW,8.1,-,N/A,,Unknown,210,2013-12-10 08:28:00
2:48 AM,16.0,5.0,62,-9999,-9999.0,SW,10.4,-,N/A,,Unknown,230,2013-12-10 08:48:00
3:08 AM,15.8,3.2,58,-9999,-9999.0,WSW,11.5,-,N/A,,Unknown,240,2013-12-10 09:08:00
3:28 AM,16.0,4.1,60,-9999,-9999.0,WSW,9.2,-,N/A,,Unknown,240,2013-12-10 09:28:00
3:48 AM,16.0,4.1,60,-9999,-9999.0,West,6.9,-,N/A,,Unknown,270,2013-12-10 09:48:00
4:08 AM,17.1,3.0,54,-9999,-9999.0,WSW,11.5,-,N/A,,Unknown,250,2013-12-10 10:08:00
4:28 AM,16.0,3.0,57,-9999,-9999.0,WSW,9.2,-,N/A,,Unknown,250,2013-12-10 10:28:00
4:48 AM,17.1,2.1,52,-9999,-9999.0,West,10.4,-,N/A,,Unknown,260,2013-12-10 10:48:00
5:08 AM,-9999,-9999,N/A,-9999,-9999.0,North,-9999.0,-,N/A,,Unknown,0,2013-12-10 11:08:00
5:28 AM,15.1,2.1,57,-9999,-9999.0,West,8.1,-,N/A,,Unknown,260,2013-12-10 11:28:00
5:48 AM,16.0,1.0,52,-9999,-9999.0,West,9.2,-,N/A,,Unknown,260,2013-12-10 11:48:00
6:08 AM,16.0,1.0,52,-9999,-9999.0,West,9.2,-,N/A,,Unknown,260,2013-12-10 12:08:00
6:28 AM,16.0,1.0,52,-9999,-9999.0,West,10.4,-,N/A,,Unknown,260,2013-12-10 12:28:00
6:48 AM,16.0,2.1,54,-9999,-9999.0,West,8.1,-,N/A,,Unknown,260,2013-12-10 12:48:00
7:08 AM,17.1,0.1,48,-9999,-9999.0,WSW,11.5,-,N/A,,Unknown,250,2013-12-10 13:08:00
7:28 AM,19.0,0.1,44,-9999,-9999.0,WSW,12.7,-,N/A,,Unknown,240,2013-12-10 13:28:00
7:48 AM,19.9,1.0,44,-9999,-9999.0,WSW,12.7,-,N/A,,Unknown,240,2013-12-10 13:48:00
8:08 AM,23.0,0.1,37,-9999,-9999.0,SW,13.8,-,N/A,,Unknown,220,2013-12-10 14:08:00
8:28 AM,24.1,1.0,37,-9999,-9999.0,SW,10.4,-,N/A,,Unknown,220,2013-12-10 14:28:00
8:48 AM,27.0,3.0,36,-9999,-9999.0,SW,6.9,-,N/A,,Unknown,220,2013-12-10 14:48:00
9:08 AM,25.0,4.1,41,-9999,-9999.0,SSW,8.1,-,N/A,,Unknown,210,2013-12-10 15:08:00
9:28 AM,25.0,3.0,39,-9999,-9999.0,South,11.5,-,N/A,,Unknown,190,2013-12-10 15:28:00
9:48 AM,26.1,3.0,37,-9999,-9999.0,SSW,16.1,-,N/A,,Unknown,200,2013-12-10 15:48:00
10:08 AM,27.0,7.2,43,-9999,-9999.0,South,12.7,-,N/A,,Unknown,190,2013-12-10 16:08:00
10:28 AM,32.0,8.1,37,-9999,-9999.0,SSW,12.7,-,N/A,,Unknown,200,2013-12-10 16:28:00
10:48 AM,34.0,11.1,39,-9999,-9999.0,South,10.4,-,N/A,,Unknown,190,2013-12-10 16:48:00
11:08 AM,37.0,10.0,33,-9999,-9999.0,SSW,11.5,-,N/A,,Unknown,210,2013-12-10 17:08:00
11:28 AM,39.0,10.0,30,-9999,-9999.0,SSW,9.2,-,N/A,,Unknown,200,2013-12-10 17:28:00
11:48 AM,39.9,11.1,31,-9999,-9999.0,SSW,4.6,-,N/A,,Unknown,210,2013-12-10 17:48:00
12:08 PM,42.1,9.1,26,-9999,-9999.0,SSW,10.4,-,N/A,,Unknown,200,2013-12-10 18:08:00
12:28 PM,42.1,10.0,27,-9999,-9999.0,South,10.4,-,N/A,,Unknown,190,2013-12-10 18:28:00
12:48 PM,42.1,11.1,28,-9999,-9999.0,South,11.5,-,N/A,,Unknown,190,2013-12-10 18:48:00
1:08 PM,44.1,12.0,27,-9999,-9999.0,SSW,8.1,-,N/A,,Unknown,210,2013-12-10 19:08:00
1:28 PM,46.0,10.0,23,-9999,-9999.0,South,8.1,-,N/A,,Unknown,190,2013-12-10 19:28:00
1:48 PM,46.9,11.1,24,-9999,-9999.0,South,8.1,-,N/A,,Unknown,180,2013-12-10 19:48:00
2:08 PM,48.9,10.0,21,-9999,-9999.0,SSW,13.8,-,N/A,,Unknown,200,2013-12-10 20:08:00
2:28 PM,50.0,11.1,21,-9999,-9999.0,SSW,10.4,-,N/A,,Unknown,200,2013-12-10 20:28:00
2:48 PM,50.0,11.1,21,-9999,-9999.0,SSW,13.8,-,N/A,,Unknown,210,2013-12-10 20:48:00
3:08 PM,51.1,13.1,22,-9999,-9999.0,SSW,11.5,-,N/A,,Unknown,200,2013-12-10 21:08:00
3:28 PM,52.0,12.0,20,-9999,-9999.0,SSW,9.2,-,N/A,,Unknown,210,2013-12-10 21:28:00
3:48 PM,52.0,10.0,19,-9999,-9999.0,SSW,15.0,-,N/A,,Unknown,200,2013-12-10 21:48:00
4:08 PM,51.1,8.1,18,-9999,-9999.0,SSW,13.8,-,N/A,,Unknown,210,2013-12-10 22:08:00
4:28 PM,50.0,9.1,19,-9999,-9999.0,SSW,13.8,-,N/A,,Unknown,200,2013-12-10 22:28:00
4:48 PM,48.0,8.1,20,-9999,-9999.0,SSW,13.8,-,N/A,,Unknown,210,2013-12-10 22:48:00
5:08 PM,45.0,8.1,22,-9999,-9999.0,SSW,11.5,-,N/A,,Unknown,210,2013-12-10 23:08:00
5:28 PM,42.1,9.1,26,-9999,-9999.0,SSW,8.1,-,N/A,,Unknown,210,2013-12-10 23:28:00
5:48 PM,41.0,9.1,27,-9999,-9999.0,SW,8.1,-,N/A,,Unknown,220,2013-12-10 23:48:00
6:08 PM,41.0,9.1,27,-9999,-9999.0,SW,9.2,-,N/A,,Unknown,220,2013-12-11 00:08:00
6:28 PM,41.0,9.1,27,-9999,-9999.0,SW,11.5,-,N/A,,Unknown,220,2013-12-11 00:28:00
6:48 PM,39.9,10.0,29,-9999,-9999.0,SW,9.2,-,N/A,,Unknown,220,2013-12-11 00:48:00
7:08 PM,39.0,11.1,32,-9999,-9999.0,SW,9.2,-,N/A,,Unknown,230,2013-12-11 01:08:00
7:28 PM,37.0,11.1,34,-9999,-9999.0,West,5.8,-,N/A,,Unknown,260,2013-12-11 01:28:00
7:48 PM,34.0,10.0,37,-9999,-9999.0,WSW,6.9,-,N/A,,Unknown,240,2013-12-11 01:48:00
8:08 PM,33.1,11.1,40,-9999,-9999.0,WSW,6.9,-,N/A,,Unknown,250,2013-12-11 02:08:00
8:28 PM,34.0,12.0,40,-9999,-9999.0,WSW,8.1,-,N/A,,Unknown,250,2013-12-11 02:28:00
8:48 PM,33.1,12.0,42,-9999,-9999.0,WSW,8.1,-,N/A,,Unknown,250,2013-12-11 02:48:00
9:08 PM,33.1,12.0,42,-9999,-9999.0,West,8.1,-,N/A,,Unknown,280,2013-12-11 03:08:00
9:28 PM,32.0,12.0,44,-9999,-9999.0,West,6.9,-,N/A,,Unknown,280,2013-12-11 03:28:00
9:48 PM,32.0,12.0,44,-9999,-9999.0,West,8.1,-,N/A,,Unknown,270,2013-12-11 03:48:00
10:08 PM,28.9,9.1,43,-9999,-9999.0,North,11.5,-,N/A,,Unknown,350,2013-12-11 04:08:00
10:28 PM,30.9,10.0,42,-9999,-9999.0,North,15.0,-,N/A,,Unknown,360,2013-12-11 04:28:00
10:48 PM,32.0,11.1,42,-9999,-9999.0,North,13.8,-,N/A,,Unknown,10,2013-12-11 04:48:00
11:08 PM,30.9,12.0,46,-9999,-9999.0,North,13.8,-,N/A,,Unknown,360,2013-12-11 05:08:00
11:28 PM,30.9,14.0,50,-9999,-9999.0,North,11.5,-,N/A,,Unknown,360,2013-12-11 05:28:00
11:48 PM,30.9,14.0,50,-9999,-9999.0,North,12.7,-,N/A,,Unknown,10,2013-12-11 05:48:00